Time;durP1;ratioP1;P1;durP2;ratioP2;P2;SDS_P1;SDS_P2;PMS_P1;PMS_P2;Temp;Humidity;BMP_temperature;BMP_pressure;BME280_temperature;BME280_humidity;BME280_pressure;Samples;Min_cycle;Max_cycle;Signal;HPM_P1;HPM_P2
2021/11/04 00:01:44;;;;;;;30.30;20.60;;;7.60;99.90;;;;;;4950900;28;20098;-66
2021/11/04 00:04:12;;;;;;;28.13;18.58;;;7.60;99.90;;;;;;4951057;28;20054;-66
2021/11/04 00:06:39;;;;;;;26.13;18.15;;;7.70;99.90;;;;;;4947395;28;20075;-66
2021/11/04 00:09:06;;;;;;;27.08;17.80;;;7.70;99.90;;;;;;4951321;29;20047;-66
2021/11/04 00:11:34;;;;;;;29.70;19.13;;;7.70;99.90;;;;;;4952252;28;20040;-66
2021/11/04 00:14:02;;;;;;;26.63;18.83;;;7.70;99.90;;;;;;4951248;28;20409;-66
2021/11/04 00:16:29;;;;;;;26.95;17.98;;;7.80;99.90;;;;;;4950915;28;20490;-66
2021/11/04 00:18:57;;;;;;;28.75;18.85;;;7.80;99.90;;;;;;4950902;28;20078;-66
2021/11/04 00:21:26;;;;;;;26.08;17.63;;;7.80;99.90;;;;;;4955655;28;20387;-66
2021/11/04 00:23:53;;;;;;;26.10;18.40;;;7.80;99.90;;;;;;4953461;28;20098;-66
2021/11/04 00:26:21;;;;;;;27.60;18.98;;;7.80;99.90;;;;;;4955944;28;20094;-66
2021/11/04 00:28:49;;;;;;;27.05;17.60;;;7.90;99.90;;;;;;4953993;28;20391;-66
2021/11/04 00:31:16;;;;;;;25.58;17.30;;;7.80;99.90;;;;;;4955598;29;20043;-65
2021/11/04 00:33:44;;;;;;;25.77;18.63;;;7.80;99.90;;;;;;4954651;28;20525;-66
2021/11/04 00:36:11;;;;;;;28.02;17.33;;;7.80;99.90;;;;;;4955638;28;20050;-66
2021/11/04 00:38:38;;;;;;;24.80;16.70;;;7.80;99.90;;;;;;4955774;28;20047;-65
2021/11/04 00:41:06;;;;;;;23.40;16.80;;;7.80;99.90;;;;;;4954192;28;20051;-65
2021/11/04 00:43:33;;;;;;;24.27;17.10;;;7.70;99.90;;;;;;4950290;29;20057;-66
2021/11/04 00:46:00;;;;;;;24.27;16.90;;;7.80;99.90;;;;;;4954204;28;20055;-67
2021/11/04 00:48:27;;;;;;;24.33;17.60;;;7.80;99.90;;;;;;4940650;29;20513;-67
2021/11/04 00:50:54;;;;;;;24.65;16.40;;;7.80;99.90;;;;;;4937580;29;20435;-66
2021/11/04 00:53:22;;;;;;;27.02;18.33;;;7.80;99.90;;;;;;4941349;29;20574;-66
2021/11/04 00:55:49;;;;;;;26.73;18.30;;;7.80;99.90;;;;;;4955190;28;20534;-66
2021/11/04 00:58:17;;;;;;;25.38;18.15;;;7.80;99.90;;;;;;4945356;29;20047;-67
2021/11/04 01:00:44;;;;;;;26.25;17.98;;;7.80;99.90;;;;;;4952340;29;20490;-66
2021/11/04 01:03:12;;;;;;;27.40;18.67;;;7.70;99.90;;;;;;4955842;28;20478;-66
2021/11/04 01:05:39;;;;;;;23.33;15.82;;;7.70;99.90;;;;;;4955072;28;20461;-66
2021/11/04 01:08:07;;;;;;;24.13;17.33;;;7.70;99.90;;;;;;4955672;28;20050;-66
2021/11/04 01:10:34;;;;;;;24.80;17.42;;;7.70;99.90;;;;;;4954898;28;20490;-68
2021/11/04 01:13:02;;;;;;;25.48;17.80;;;7.70;99.90;;;;;;4944908;29;20490;-68
2021/11/04 01:15:29;;;;;;;27.95;19.15;;;7.70;99.90;;;;;;4949806;28;20066;-68
2021/11/04 01:17:57;;;;;;;28.95;19.55;;;7.70;99.90;;;;;;4955062;29;20046;-68
2021/11/04 01:20:24;;;;;;;27.52;19.05;;;7.60;99.90;;;;;;4955098;28;20142;-68
2021/11/04 01:22:53;;;;;;;23.88;17.13;;;7.70;99.90;;;;;;4954566;28;20126;-68
2021/11/04 01:25:21;;;;;;;24.90;17.05;;;7.70;99.90;;;;;;4955282;28;20403;-68
2021/11/04 01:27:48;;;;;;;22.23;16.50;;;7.70;99.90;;;;;;4954598;28;20047;-68
2021/11/04 01:30:15;;;;;;;24.25;16.48;;;7.70;99.90;;;;;;4954584;28;20039;-68
2021/11/04 01:32:43;;;;;;;25.65;17.13;;;7.70;99.90;;;;;;4953309;28;20506;-68
2021/11/04 01:35:10;;;;;;;26.45;17.45;;;7.70;99.90;;;;;;4952116;29;20074;-68
2021/11/04 01:37:38;;;;;;;26.73;17.13;;;7.70;99.90;;;;;;4952260;28;20506;-66
2021/11/04 01:40:06;;;;;;;23.77;16.98;;;7.70;99.90;;;;;;4953214;28;20466;-66
2021/11/04 01:42:34;;;;;;;25.17;17.40;;;7.80;99.90;;;;;;4932373;29;20046;-66
2021/11/04 01:45:02;;;;;;;24.42;16.88;;;7.70;99.90;;;;;;4952703;28;20094;-66
2021/11/04 01:47:30;;;;;;;24.88;17.02;;;7.70;99.90;;;;;;4945754;29;20047;-66
2021/11/04 01:49:58;;;;;;;26.45;17.73;;;7.70;99.90;;;;;;4953373;28;20062;-66
2021/11/04 01:52:26;;;;;;;28.45;19.17;;;7.60;99.90;;;;;;4941149;29;20566;-66
2021/11/04 01:54:53;;;;;;;25.85;17.35;;;7.60;99.90;;;;;;4954922;29;20059;-66
2021/11/04 01:57:20;;;;;;;26.17;17.25;;;7.60;99.90;;;;;;4952936;29;20043;-66
2021/11/04 01:59:48;;;;;;;25.23;16.95;;;7.60;99.90;;;;;;4951352;29;20074;-66
2021/11/04 02:02:17;;;;;;;22.17;16.40;;;7.60;99.90;;;;;;4953850;28;20063;-66
2021/11/04 02:04:52;;;;;;;25.67;18.00;;;7.60;99.90;;;;;;4952429;28;20047;-66
2021/11/04 02:07:32;;;;;;;26.35;18.40;;;7.70;99.90;;;;;;4953403;29;20046;-66
2021/11/04 02:10:11;;;;;;;26.75;17.48;;;7.70;99.90;;;;;;4954224;28;20054;-66
2021/11/04 02:13:01;;;;;;;24.67;17.15;;;7.70;99.90;;;;;;4952434;29;20047;-66
2021/11/04 02:15:32;;;;;;;25.40;17.83;;;7.70;99.90;;;;;;4953174;28;20051;-66
2021/11/04 02:18:01;;;;;;;26.23;16.95;;;7.70;99.90;;;;;;4954386;29;20561;-66
2021/11/04 02:21:16;;;;;;;28.00;19.25;;;7.70;99.90;;;;;;4954150;28;20043;-66
2021/11/04 02:24:13;;;;;;;30.20;19.20;;;7.70;99.90;;;;;;4913422;29;20059;-66
2021/11/04 02:26:42;;;;;;;27.75;19.02;;;7.70;99.90;;;;;;4913576;29;20045;-66
2021/11/04 02:29:10;;;;;;;30.38;19.00;;;7.60;99.90;;;;;;4913341;29;20059;-66
2021/11/04 02:31:38;;;;;;;27.13;18.98;;;7.60;99.90;;;;;;4911797;29;20519;-66
2021/11/04 02:34:05;;;;;;;33.22;21.50;;;7.60;99.90;;;;;;4911200;29;20516;-66
2021/11/04 02:36:33;;;;;;;31.55;20.15;;;7.50;99.90;;;;;;4911619;29;20060;-66
2021/11/04 02:39:01;;;;;;;28.95;20.45;;;7.50;99.90;;;;;;4911510;29;20431;-66
2021/11/04 02:41:31;;;;;;;35.50;22.05;;;7.50;99.90;;;;;;4912732;29;20508;-66
2021/11/04 02:44:00;;;;;;;32.55;20.55;;;7.50;99.90;;;;;;4911787;29;20066;-66
2021/11/04 02:46:29;;;;;;;33.90;22.25;;;7.40;99.90;;;;;;4896767;29;20060;-66
2021/11/04 02:48:57;;;;;;;33.80;22.13;;;7.40;99.90;;;;;;4911809;29;20052;-66
2021/11/04 02:51:24;;;;;;;36.63;24.02;;;7.40;99.90;;;;;;4912561;29;20439;-66
2021/11/04 02:53:51;;;;;;;36.38;22.70;;;7.40;99.90;;;;;;4910731;29;20066;-66
2021/11/04 02:56:19;;;;;;;31.17;20.77;;;7.30;99.90;;;;;;4952704;28;20403;-66
2021/11/04 02:58:46;;;;;;;35.90;23.98;;;7.30;99.90;;;;;;4952731;28;20394;-66
2021/11/04 03:01:13;;;;;;;35.53;22.35;;;7.40;99.90;;;;;;4952734;28;20044;-66
2021/11/04 03:03:41;;;;;;;36.72;22.90;;;7.30;99.90;;;;;;4952403;28;20054;-66
2021/11/04 03:06:08;;;;;;;37.40;22.70;;;7.30;99.90;;;;;;4952322;29;20035;-66
2021/11/04 03:08:36;;;;;;;38.00;24.00;;;7.30;99.90;;;;;;4952970;28;20046;-66
2021/11/04 03:11:03;;;;;;;38.08;23.98;;;7.30;99.90;;;;;;4952075;28;20046;-66
2021/11/04 03:13:31;;;;;;;33.30;22.25;;;7.30;99.90;;;;;;4940528;29;20054;-66
2021/11/04 03:16:01;;;;;;;36.03;24.05;;;7.30;99.90;;;;;;4951703;28;20074;-66
2021/11/04 03:18:29;;;;;;;36.80;23.90;;;7.30;99.90;;;;;;4951384;28;20058;-66
2021/11/04 03:20:58;;;;;;;35.30;24.23;;;7.30;99.90;;;;;;4952348;29;20051;-66
2021/11/04 03:23:25;;;;;;;36.85;24.13;;;7.30;99.90;;;;;;4952231;28;20058;-66
2021/11/04 03:25:55;;;;;;;37.83;23.30;;;7.30;99.90;;;;;;4951577;29;20098;-66
2021/11/04 03:28:25;;;;;;;36.53;24.35;;;7.30;99.90;;;;;;4944966;28;20110;-66
2021/11/04 03:30:55;;;;;;;36.40;23.88;;;7.30;99.90;;;;;;4951451;29;20043;-66
2021/11/04 03:33:23;;;;;;;35.45;22.58;;;7.30;99.90;;;;;;4949898;29;20043;-66
2021/11/04 03:35:51;;;;;;;32.70;21.90;;;7.30;99.90;;;;;;4950092;28;20055;-66
2021/11/04 03:38:19;;;;;;;36.97;23.13;;;7.30;99.90;;;;;;4950595;28;20085;-65
2021/11/04 03:40:46;;;;;;;39.42;23.40;;;7.30;99.90;;;;;;4951717;29;20039;-64
2021/11/04 03:43:15;;;;;;;35.05;22.90;;;7.30;99.90;;;;;;4952131;29;20510;-65
2021/11/04 03:45:45;;;;;;;35.83;22.15;;;7.20;99.90;;;;;;4952697;28;20047;-65
2021/11/04 03:48:12;;;;;;;36.05;22.55;;;7.30;99.90;;;;;;4950400;28;20054;-65
2021/11/04 03:50:40;;;;;;;38.25;24.02;;;7.30;99.90;;;;;;4952148;29;20043;-65
2021/11/04 03:53:08;;;;;;;34.22;21.98;;;7.30;99.90;;;;;;4952010;28;20055;-64
2021/11/04 03:55:35;;;;;;;40.70;24.98;;;7.20;99.90;;;;;;4956477;29;20126;-64
2021/11/04 03:58:03;;;;;;;39.88;24.58;;;7.30;99.90;;;;;;4956356;28;20060;-65
2021/11/04 04:00:30;;;;;;;43.35;26.35;;;7.30;99.90;;;;;;4939518;29;20055;-65
2021/11/04 04:02:58;;;;;;;42.85;25.20;;;7.20;99.90;;;;;;4954534;29;20046;-65
2021/11/04 04:05:30;;;;;;;43.15;25.70;;;7.20;99.90;;;;;;4947753;28;20051;-65
2021/11/04 04:07:58;;;;;;;38.00;24.13;;;7.20;99.90;;;;;;4947850;29;20039;-65
2021/11/04 04:10:28;;;;;;;37.65;23.27;;;7.10;99.90;;;;;;4948930;29;20051;-65
2021/11/04 04:12:55;;;;;;;37.72;23.20;;;7.10;99.90;;;;;;4954901;28;20595;-65
2021/11/04 04:15:23;;;;;;;44.92;25.05;;;7.10;99.90;;;;;;4956399;28;20058;-65
2021/11/04 04:17:50;;;;;;;36.55;22.92;;;7.10;99.90;;;;;;4960687;28;20058;-65
2021/11/04 04:20:18;;;;;;;40.67;23.50;;;7.10;99.90;;;;;;4954058;28;20054;-65
2021/11/04 04:22:45;;;;;;;39.95;24.23;;;7.10;99.90;;;;;;4953976;28;20050;-66
2021/11/04 04:25:12;;;;;;;37.33;22.27;;;7.10;99.90;;;;;;4955783;29;20569;-65
2021/11/04 04:27:39;;;;;;;37.65;22.25;;;7.10;99.90;;;;;;4955902;28;20055;-65
2021/11/04 04:30:08;;;;;;;41.78;23.90;;;7.10;99.90;;;;;;4954570;28;20135;-65
2021/11/04 04:32:36;;;;;;;41.05;23.58;;;7.10;99.90;;;;;;4955830;28;20053;-65
2021/11/04 04:35:04;;;;;;;42.00;24.65;;;7.10;99.90;;;;;;4952987;28;20086;-65
2021/11/04 04:37:33;;;;;;;39.85;23.60;;;7.10;99.90;;;;;;4945813;29;20098;-65
2021/11/04 04:40:00;;;;;;;41.22;24.42;;;7.10;99.90;;;;;;4955666;29;20592;-65
2021/11/04 04:42:28;;;;;;;47.17;25.13;;;7.10;99.90;;;;;;4940892;28;20058;-65
2021/11/04 04:44:55;;;;;;;43.90;23.58;;;7.10;99.90;;;;;;4948290;28;20035;-65
2021/11/04 04:47:23;;;;;;;41.30;23.75;;;7.10;99.90;;;;;;4941490;29;20134;-65
2021/11/04 04:49:50;;;;;;;41.05;23.63;;;7.10;99.90;;;;;;4926095;29;20055;-65
2021/11/04 04:52:18;;;;;;;40.20;22.70;;;7.10;99.90;;;;;;4941609;29;20139;-65
2021/11/04 04:54:45;;;;;;;42.80;23.48;;;7.10;99.90;;;;;;4955130;29;20047;-66
2021/11/04 04:57:12;;;;;;;40.00;22.60;;;7.10;99.90;;;;;;4955605;28;20043;-66
2021/11/04 04:59:39;;;;;;;37.50;22.88;;;7.10;99.90;;;;;;4938502;29;20043;-66
2021/11/04 05:02:07;;;;;;;40.95;22.90;;;7.10;99.90;;;;;;4955201;28;20514;-66
2021/11/04 05:04:34;;;;;;;43.15;23.88;;;7.10;99.90;;;;;;4952644;28;20493;-66
2021/11/04 05:07:01;;;;;;;41.58;24.25;;;7.10;99.90;;;;;;4949029;28;20058;-65
2021/11/04 05:09:29;;;;;;;41.28;23.65;;;7.10;99.90;;;;;;4954159;28;20071;-66
2021/11/04 05:11:56;;;;;;;40.95;24.80;;;7.10;99.90;;;;;;4955274;28;20043;-66
2021/11/04 05:14:23;;;;;;;39.08;23.75;;;7.10;99.90;;;;;;4950470;28;20086;-66
2021/11/04 05:16:51;;;;;;;44.00;25.98;;;7.10;99.90;;;;;;4954737;29;20502;-66
2021/11/04 05:19:18;;;;;;;43.42;25.35;;;7.10;99.90;;;;;;4955424;29;20046;-66
2021/11/04 05:21:46;;;;;;;41.47;24.23;;;7.10;99.90;;;;;;4954804;28;20047;-66
2021/11/04 05:24:14;;;;;;;41.65;24.80;;;7.20;99.90;;;;;;4955352;28;20055;-66
2021/11/04 05:26:41;;;;;;;40.72;24.20;;;7.20;99.90;;;;;;4954899;28;20051;-66
2021/11/04 05:29:09;;;;;;;39.83;23.90;;;7.20;99.90;;;;;;4955265;28;20070;-65
2021/11/04 05:31:37;;;;;;;38.60;23.65;;;7.20;99.90;;;;;;4952586;28;20043;-65
2021/11/04 05:34:04;;;;;;;41.78;23.75;;;7.20;99.90;;;;;;4944640;29;20055;-66
2021/11/04 05:36:32;;;;;;;36.50;21.70;;;7.20;99.90;;;;;;4952528;29;20039;-65
2021/11/04 05:38:59;;;;;;;40.40;24.77;;;7.20;99.90;;;;;;4950913;29;20093;-66
2021/11/04 05:41:27;;;;;;;41.47;24.73;;;7.20;99.90;;;;;;4950719;29;20054;-66
2021/11/04 05:43:54;;;;;;;36.75;23.70;;;7.20;99.90;;;;;;4947100;29;20520;-66
2021/11/04 05:46:22;;;;;;;38.97;23.42;;;7.30;99.90;;;;;;4943065;28;20043;-66
2021/11/04 05:48:49;;;;;;;35.63;22.83;;;7.30;99.90;;;;;;4954318;28;20039;-65
2021/11/04 05:51:16;;;;;;;38.67;24.05;;;7.30;99.90;;;;;;4950633;28;20513;-65
2021/11/04 05:53:43;;;;;;;36.25;22.83;;;7.30;99.90;;;;;;4949011;28;20047;-65
2021/11/04 05:56:11;;;;;;;38.83;23.70;;;7.30;99.90;;;;;;4937409;29;20035;-66
2021/11/04 05:58:39;;;;;;;38.63;24.35;;;7.30;99.90;;;;;;4937420;29;20043;-65
2021/11/04 06:01:06;;;;;;;40.30;24.10;;;7.30;99.90;;;;;;4945903;29;20040;-66
2021/11/04 06:03:33;;;;;;;40.70;24.70;;;7.30;99.90;;;;;;4947537;28;20049;-65
2021/11/04 06:06:01;;;;;;;40.17;24.10;;;7.30;99.90;;;;;;4953150;28;20039;-66
2021/11/04 06:08:28;;;;;;;38.08;24.20;;;7.20;99.90;;;;;;4947903;28;20042;-65
2021/11/04 06:10:55;;;;;;;47.72;24.13;;;7.30;99.90;;;;;;4949046;28;20063;-66
2021/11/04 06:13:23;;;;;;;42.13;23.80;;;7.20;99.90;;;;;;4950898;28;20051;-65
2021/11/04 06:15:50;;;;;;;38.42;22.95;;;7.20;99.90;;;;;;4941238;28;20048;-65
2021/11/04 06:18:17;;;;;;;39.20;23.85;;;7.10;99.90;;;;;;4954322;28;20138;-65
2021/11/04 06:20:45;;;;;;;41.90;24.23;;;7.10;99.90;;;;;;4954487;28;20533;-65
2021/11/04 06:23:12;;;;;;;38.75;22.98;;;7.10;99.90;;;;;;4953743;28;20047;-66
2021/11/04 06:25:40;;;;;;;37.45;22.58;;;7.20;99.90;;;;;;4947629;28;20045;-66
2021/11/04 06:28:08;;;;;;;37.88;22.10;;;7.10;99.90;;;;;;4942492;28;20484;-66
2021/11/04 06:30:35;;;;;;;38.88;22.40;;;7.10;99.90;;;;;;4952650;29;20055;-65
2021/11/04 06:33:03;;;;;;;36.10;21.10;;;7.10;99.90;;;;;;4951448;28;20051;-65
2021/11/04 06:35:30;;;;;;;35.70;21.80;;;7.10;99.90;;;;;;4953742;28;20042;-65
2021/11/04 06:37:57;;;;;;;35.72;20.85;;;7.10;99.90;;;;;;4951681;28;20040;-65
2021/11/04 06:40:27;;;;;;;35.38;20.38;;;7.10;99.90;;;;;;4950097;28;20051;-65
2021/11/04 06:42:59;;;;;;;35.17;20.45;;;7.10;99.90;;;;;;4953137;29;20554;-65
2021/11/04 06:45:27;;;;;;;36.88;20.15;;;7.10;99.90;;;;;;4949219;28;20497;-65
2021/11/04 06:47:55;;;;;;;34.47;20.38;;;7.10;99.90;;;;;;4950253;28;20126;-65
2021/11/04 06:50:27;;;;;;;35.15;19.95;;;7.00;99.90;;;;;;4952747;28;20067;-65
2021/11/04 06:53:07;;;;;;;32.70;19.27;;;7.10;99.90;;;;;;4940904;29;20063;-65
2021/11/04 06:55:39;;;;;;;32.70;19.95;;;7.10;99.90;;;;;;4945229;28;20058;-65
2021/11/04 06:58:13;;;;;;;;;;;7.10;99.90;;;;;;4947505;28;20062;-66
2021/11/04 07:00:45;;;;;;;31.52;17.75;;;7.20;99.90;;;;;;4954813;28;20354;-65
2021/11/04 07:03:19;;;;;;;31.95;18.88;;;7.20;99.90;;;;;;4947741;29;20097;-65
2021/11/04 07:05:47;;;;;;;30.30;18.08;;;7.20;99.90;;;;;;4957489;28;20042;-66
2021/11/04 07:08:25;;;;;;;32.85;19.40;;;7.10;99.90;;;;;;4953475;29;20063;-66
2021/11/04 07:10:58;;;;;;;31.00;17.98;;;7.20;99.90;;;;;;4951807;29;20773;-66
2021/11/04 07:13:28;;;;;;;28.33;16.83;;;7.20;99.90;;;;;;4943509;29;20522;-66
2021/11/04 07:15:58;;;;;;;26.38;16.00;;;7.20;99.90;;;;;;4952401;28;20309;-66
2021/11/04 07:18:27;;;;;;;25.27;16.02;;;7.30;99.90;;;;;;4957022;28;20042;-66
2021/11/04 07:21:22;;;;;;;27.23;15.32;;;7.30;99.90;;;;;;4957457;28;20058;-66
2021/11/04 07:23:59;;;;;;;25.05;15.30;;;7.30;99.90;;;;;;4956567;28;20134;-65
2021/11/04 07:26:35;;;;;;;24.63;15.05;;;7.30;99.90;;;;;;4951089;28;20055;-65
2021/11/04 07:29:04;;;;;;;24.23;14.82;;;7.30;99.90;;;;;;4949340;28;20078;-66
2021/11/04 07:31:37;;;;;;;23.08;14.27;;;7.30;99.90;;;;;;4950621;28;20051;-66
2021/11/04 07:34:08;;;;;;;24.05;14.68;;;7.30;99.90;;;;;;4937858;29;20050;-66
2021/11/04 07:36:38;;;;;;;22.63;14.27;;;7.30;99.90;;;;;;4951365;28;20043;-65
2021/11/04 07:39:07;;;;;;;24.25;14.25;;;7.30;99.90;;;;;;4950448;29;20494;-65
2021/11/04 07:41:38;;;;;;;19.10;12.52;;;7.30;99.90;;;;;;4951497;28;20039;-66
2021/11/04 07:44:06;;;;;;;19.20;12.55;;;7.30;99.90;;;;;;4945723;28;20043;-66
2021/11/04 07:46:33;;;;;;;20.55;12.52;;;7.30;99.90;;;;;;4948562;28;20057;-65
2021/11/04 07:49:00;;;;;;;16.73;11.55;;;7.30;99.90;;;;;;4950941;28;20087;-66
2021/11/04 07:51:28;;;;;;;18.83;12.73;;;7.30;99.90;;;;;;4940309;29;20059;-65
2021/11/04 07:53:58;;;;;;;17.38;11.68;;;7.30;99.90;;;;;;4949398;28;20394;-65
2021/11/04 07:56:25;;;;;;;15.43;9.75;;;7.30;99.90;;;;;;4941984;29;20391;-65
2021/11/04 07:58:53;;;;;;;14.50;10.15;;;7.30;99.90;;;;;;4951816;28;20059;-65
2021/11/04 08:01:25;;;;;;;12.45;9.10;;;7.30;99.90;;;;;;4940716;29;20126;-66
2021/11/04 08:03:53;;;;;;;11.00;7.88;;;7.30;99.90;;;;;;4951986;28;20055;-65
2021/11/04 08:06:21;;;;;;;12.40;6.88;;;7.20;99.90;;;;;;4951890;28;20053;-65
2021/11/04 08:08:49;;;;;;;9.40;5.80;;;7.30;99.90;;;;;;4947740;28;20111;-64
2021/11/04 08:11:17;;;;;;;8.82;6.07;;;7.20;99.90;;;;;;4951814;29;20467;-64
2021/11/04 08:13:47;;;;;;;11.75;6.13;;;7.20;99.90;;;;;;4952222;28;20043;-64
2021/11/04 08:16:16;;;;;;;7.95;5.00;;;7.20;99.90;;;;;;4934890;28;20047;-64
2021/11/04 08:18:43;;;;;;;7.25;3.95;;;7.10;99.90;;;;;;4960520;28;20450;-65
2021/11/04 08:21:11;;;;;;;5.97;3.85;;;7.10;99.90;;;;;;4926934;28;20043;-65
2021/11/04 08:23:38;;;;;;;6.18;3.75;;;7.10;99.90;;;;;;4952478;28;20075;-65
2021/11/04 08:26:07;;;;;;;6.55;3.08;;;7.10;99.90;;;;;;4952102;28;20055;-64
2021/11/04 08:28:34;;;;;;;4.35;2.38;;;7.00;99.90;;;;;;4952834;28;20112;-65
2021/11/04 08:31:02;;;;;;;3.67;2.20;;;7.00;99.90;;;;;;4915801;29;20138;-65
2021/11/04 08:33:31;;;;;;;4.43;2.67;;;7.00;99.90;;;;;;4952969;28;20540;-65
2021/11/04 08:35:59;;;;;;;5.50;2.33;;;6.90;99.90;;;;;;4960634;28;20050;-65
2021/11/04 08:38:26;;;;;;;4.32;2.63;;;7.00;99.90;;;;;;4944443;28;20051;-65
2021/11/04 08:40:54;;;;;;;4.03;2.50;;;6.90;99.90;;;;;;4953515;28;20059;-64
2021/11/04 08:43:23;;;;;;;4.53;2.60;;;6.90;99.90;;;;;;4947582;28;20086;-64
2021/11/04 08:45:51;;;;;;;5.15;2.63;;;6.80;99.90;;;;;;4965465;28;20043;-64
2021/11/04 08:48:20;;;;;;;4.70;2.50;;;6.70;99.90;;;;;;4947140;29;20048;-64
2021/11/04 08:50:48;;;;;;;7.82;3.17;;;6.70;99.90;;;;;;4952468;28;21382;-63
2021/11/04 08:53:17;;;;;;;5.97;3.00;;;6.70;99.90;;;;;;4947725;28;20447;-64
2021/11/04 08:55:46;;;;;;;5.45;3.33;;;6.60;99.90;;;;;;4955967;28;20086;-65
2021/11/04 08:58:13;;;;;;;4.93;3.33;;;6.70;99.90;;;;;;4955549;28;20090;-65
2021/11/04 09:00:41;;;;;;;4.95;3.20;;;6.70;99.90;;;;;;4953982;28;20043;-64
2021/11/04 09:03:09;;;;;;;6.20;3.75;;;6.70;99.90;;;;;;4948341;28;20126;-64
2021/11/04 09:05:38;;;;;;;7.72;4.28;;;6.60;99.90;;;;;;4957595;28;20067;-65
2021/11/04 09:08:07;;;;;;;6.75;4.03;;;6.50;99.90;;;;;;4955417;28;20422;-62
2021/11/04 09:10:35;;;;;;;7.45;4.10;;;6.60;99.90;;;;;;4961676;28;20054;-64
2021/11/04 09:13:02;;;;;;;6.28;3.97;;;6.60;99.90;;;;;;4947071;28;20517;-65
2021/11/04 09:15:30;;;;;;;5.90;4.30;;;6.70;99.90;;;;;;4955081;29;20066;-64
2021/11/04 09:17:59;;;;;;;6.15;4.30;;;6.60;99.90;;;;;;4965327;28;20126;-64
2021/11/04 09:20:26;;;;;;;7.25;4.63;;;6.60;99.90;;;;;;4954732;28;20074;-65
2021/11/04 09:22:54;;;;;;;7.50;4.97;;;6.50;99.90;;;;;;4949640;29;20386;-65
2021/11/04 09:25:23;;;;;;;7.70;5.10;;;6.50;99.90;;;;;;4948665;29;20432;-65
2021/11/04 09:27:52;;;;;;;8.00;4.80;;;6.50;99.90;;;;;;4959477;28;20146;-63
2021/11/04 09:30:20;;;;;;;6.15;4.57;;;6.60;99.90;;;;;;4940977;29;20051;-64
2021/11/04 09:32:47;;;;;;;6.85;5.10;;;6.50;99.90;;;;;;4926852;29;20041;-63
2021/11/04 09:35:15;;;;;;;8.77;5.47;;;6.50;99.90;;;;;;4945331;28;20138;-64
2021/11/04 09:37:44;;;;;;;7.40;5.45;;;6.50;99.90;;;;;;4927699;29;20047;-64
2021/11/04 09:40:13;;;;;;;7.07;5.45;;;6.60;99.90;;;;;;4954690;28;20394;-64
2021/11/04 09:42:40;;;;;;;8.23;5.47;;;6.60;99.90;;;;;;4954142;28;20057;-65
2021/11/04 09:45:08;;;;;;;6.82;5.22;;;6.70;99.90;;;;;;4950815;29;20145;-64
2021/11/04 09:47:38;;;;;;;7.07;5.53;;;6.70;99.90;;;;;;4950900;29;20047;-64
2021/11/04 09:50:10;;;;;;;6.78;5.65;;;6.70;99.90;;;;;;4942323;29;20410;-64
2021/11/04 09:52:38;;;;;;;;;;;6.70;99.90;;;;;;4948395;28;20410;-64
2021/11/04 09:55:09;;;;;;;7.93;6.20;;;6.70;99.90;;;;;;4932459;28;19977;-63
2021/11/04 09:57:40;;;;;;;7.05;5.88;;;6.80;99.90;;;;;;4957264;28;20047;-63
2021/11/04 10:00:08;;;;;;;6.95;5.85;;;7.00;99.90;;;;;;4953964;28;20050;-64
2021/11/04 10:02:38;;;;;;;9.15;5.50;;;7.00;99.90;;;;;;4952211;29;20043;-64
2021/11/04 10:05:15;;;;;;;7.75;5.80;;;7.10;99.90;;;;;;4952612;28;20127;-64
2021/11/04 10:07:47;;;;;;;6.43;5.40;;;7.00;99.90;;;;;;4946860;28;20047;-64
2021/11/04 10:10:18;;;;;;;8.25;6.13;;;7.10;99.90;;;;;;4949327;29;20132;-64
2021/11/04 10:13:06;;;;;;;7.10;5.70;;;7.10;99.90;;;;;;4953501;28;20043;-64
2021/11/04 10:15:37;;;;;;;7.78;6.22;;;7.20;99.90;;;;;;4954835;29;20057;-65
2021/11/04 10:18:16;;;;;;;8.52;6.07;;;7.30;99.90;;;;;;4964899;28;20089;-65
2021/11/04 10:20:56;;;;;;;7.78;6.00;;;7.30;99.90;;;;;;4956558;28;20522;-64
2021/11/04 10:23:24;;;;;;;8.23;6.18;;;7.30;99.90;;;;;;4956802;28;20442;-65
2021/11/04 10:26:23;;;;;;;7.07;5.97;;;7.40;99.90;;;;;;4958220;28;20051;-65
2021/11/04 10:29:02;;;;;;;7.78;6.20;;;7.30;99.90;;;;;;4927242;28;20047;-65
2021/11/04 10:31:45;;;;;;;7.35;5.63;;;7.20;99.90;;;;;;4949609;28;20079;-63
2021/11/04 10:34:27;;;;;;;6.93;5.63;;;7.20;99.90;;;;;;4949183;28;20040;-65
2021/11/04 10:37:22;;;;;;;6.70;5.28;;;7.30;99.90;;;;;;4936589;29;20550;-65
2021/11/04 10:39:51;;;;;;;6.70;4.97;;;7.20;99.90;;;;;;4952802;28;20481;-65
2021/11/04 10:42:19;;;;;;;8.05;5.95;;;7.10;99.90;;;;;;4937496;28;20055;-65
2021/11/04 10:44:47;;;;;;;9.48;6.10;;;7.10;99.90;;;;;;4950085;29;20082;-64
2021/11/04 10:47:18;;;;;;;7.53;5.90;;;7.20;99.90;;;;;;4932567;29;20047;-67
2021/11/04 10:49:49;;;;;;;10.80;6.55;;;7.20;99.90;;;;;;4952662;29;20072;-66
2021/11/04 10:52:24;;;;;;;7.03;5.05;;;7.20;99.90;;;;;;4953883;28;20499;-64
2021/11/04 10:54:54;;;;;;;7.25;5.72;;;7.30;99.90;;;;;;4959093;28;20133;-64
2021/11/04 10:57:41;;;;;;;6.65;5.43;;;7.30;99.90;;;;;;4939154;29;20123;-65
2021/11/04 11:00:18;;;;;;;7.28;5.57;;;7.40;99.90;;;;;;4951427;28;20039;-64
2021/11/04 11:03:11;;;;;;;8.00;5.60;;;7.40;99.90;;;;;;4957224;28;20524;-64
2021/11/04 11:05:42;;;;;;;6.78;5.28;;;7.40;99.90;;;;;;4953938;28;20043;-64
2021/11/04 11:08:11;;;;;;;7.43;5.35;;;7.30;99.90;;;;;;4925451;29;20525;-64
2021/11/04 11:10:42;;;;;;;6.47;5.22;;;7.20;99.90;;;;;;4953508;29;20074;-64
2021/11/04 11:13:10;;;;;;;6.90;5.43;;;7.20;99.90;;;;;;4961385;28;20055;-64
2021/11/04 11:15:42;;;;;;;7.47;5.53;;;7.20;99.90;;;;;;4962687;28;20454;-63
2021/11/04 11:18:11;;;;;;;6.63;5.43;;;7.20;99.90;;;;;;4954273;28;20126;-63
2021/11/04 11:20:47;;;;;;;7.95;5.15;;;7.20;99.90;;;;;;4961384;28;20051;-64
2021/11/04 11:23:19;;;;;;;7.15;5.80;;;7.10;99.90;;;;;;4953205;29;20075;-63
2021/11/04 11:25:53;;;;;;;7.28;5.57;;;7.10;99.90;;;;;;4946100;29;20035;-64
2021/11/04 11:28:22;;;;;;;7.72;6.20;;;7.10;99.90;;;;;;4964055;28;20049;-64
2021/11/04 11:31:08;;;;;;;8.52;6.13;;;7.10;99.90;;;;;;4932191;29;20058;-65
2021/11/04 11:33:44;;;;;;;8.18;6.55;;;7.10;99.90;;;;;;4962252;28;20035;-64
2021/11/04 11:36:17;;;;;;;8.07;6.57;;;7.10;99.90;;;;;;4949062;28;20134;-64
2021/11/04 11:38:58;;;;;;;10.32;7.60;;;7.20;99.90;;;;;;4952999;28;20066;-65
2021/11/04 11:41:28;;;;;;;10.15;7.00;;;7.10;99.90;;;;;;4917743;29;20081;-65
2021/11/04 11:43:57;;;;;;;8.85;6.93;;;7.20;99.90;;;;;;4953055;28;20055;-65
2021/11/04 11:46:26;;;;;;;9.82;7.18;;;7.10;99.90;;;;;;4920571;28;20102;-66
2021/11/04 11:49:12;;;;;;;9.00;6.95;;;7.10;99.90;;;;;;4947139;29;20055;-66
2021/11/04 11:51:40;;;;;;;11.07;7.18;;;7.10;99.90;;;;;;4951874;29;20499;-65
2021/11/04 11:54:14;;;;;;;8.35;6.80;;;7.10;99.90;;;;;;4937632;29;20113;-65
2021/11/04 11:57:14;;;;;;;10.27;8.05;;;7.10;99.90;;;;;;4953734;29;20043;-65
2021/11/04 11:59:59;;;;;;;8.13;6.35;;;7.10;99.90;;;;;;4944254;29;20126;-65
2021/11/04 12:02:52;;;;;;;8.70;6.95;;;7.10;99.90;;;;;;4933003;29;20047;-65
2021/11/04 12:05:23;;;;;;;8.73;6.78;;;7.10;99.90;;;;;;4951245;28;20047;-65
2021/11/04 12:08:14;;;;;;;9.43;6.63;;;7.10;99.90;;;;;;4945899;28;20509;-63
2021/11/04 12:10:43;;;;;;;11.20;7.18;;;7.10;99.90;;;;;;4942069;29;20099;-63
2021/11/04 12:13:34;;;;;;;12.73;6.40;;;7.10;99.90;;;;;;4939288;28;20044;-64
2021/11/04 12:16:12;;;;;;;8.80;6.65;;;7.10;99.90;;;;;;4908011;28;20061;-63
2021/11/04 12:18:56;;;;;;;10.77;7.28;;;7.20;99.90;;;;;;4945270;28;20047;-63
2021/11/04 12:21:27;;;;;;;7.40;5.68;;;7.20;99.90;;;;;;4948776;29;20047;-63
2021/11/04 12:23:56;;;;;;;8.90;5.55;;;7.20;99.90;;;;;;4942420;28;20828;-63
2021/11/04 12:26:39;;;;;;;6.85;5.65;;;7.20;99.90;;;;;;4946358;28;20054;-64
2021/11/04 12:29:07;;;;;;;9.57;5.75;;;7.20;99.90;;;;;;4952025;28;20518;-64
2021/11/04 12:31:39;;;;;;;7.18;5.88;;;7.30;99.90;;;;;;4956233;29;20058;-64
2021/11/04 12:34:07;;;;;;;7.25;5.75;;;7.40;99.90;;;;;;4956648;28;20040;-63
2021/11/04 12:36:44;;;;;;;7.05;5.10;;;7.40;99.90;;;;;;4948398;28;20110;-63
2021/11/04 12:39:26;;;;;;;6.32;4.50;;;7.50;99.90;;;;;;4948933;29;20050;-63
2021/11/04 12:41:58;;;;;;;6.45;5.05;;;7.50;99.90;;;;;;4954792;29;20043;-64
2021/11/04 12:44:28;;;;;;;7.68;5.45;;;7.40;99.90;;;;;;4956195;28;20047;-63
2021/11/04 12:46:56;;;;;;;5.50;4.18;;;7.50;99.90;;;;;;4954875;28;20050;-64
2021/11/04 12:49:26;;;;;;;6.40;4.32;;;7.40;99.90;;;;;;4957365;28;20046;-64
2021/11/04 12:51:55;;;;;;;6.65;4.60;;;7.40;99.90;;;;;;4947188;29;20052;-63
2021/11/04 12:54:29;;;;;;;6.63;4.10;;;7.40;99.90;;;;;;4956138;28;20077;-64
2021/11/04 12:56:58;;;;;;;4.80;3.70;;;7.40;99.90;;;;;;4957228;28;20048;-68
2021/11/04 12:59:36;;;;;;;4.50;3.38;;;7.50;99.90;;;;;;4945858;29;20485;-67
2021/11/04 13:02:11;;;;;;;6.15;3.78;;;7.40;99.90;;;;;;4925531;29;20475;-68